sensor_id;sensor_type;location;lat;lon;timestamp;P1;durP1;ratioP1;P2;durP2;ratioP2
11473;SDS011;5793;52.238;13.438;2023-12-20T00:01:19;12.27;;;9.63;;
11473;SDS011;5793;52.238;13.438;2023-12-20T00:03:47;13.07;;;9.53;;
11473;SDS011;5793;52.238;13.438;2023-12-20T00:06:15;14.03;;;9.63;;
11473;SDS011;5793;52.238;13.438;2023-12-20T00:08:42;12.73;;;9.70;;
11473;SDS011;5793;52.238;13.438;2023-12-20T00:11:11;13.30;;;10.10;;
11473;SDS011;5793;52.238;13.438;2023-12-20T00:13:39;15.20;;;9.97;;
11473;SDS011;5793;52.238;13.438;2023-12-20T00:16:08;13.90;;;9.37;;
11473;SDS011;5793;52.238;13.438;2023-12-20T00:18:36;11.73;;;9.07;;
11473;SDS011;5793;52.238;13.438;2023-12-20T00:21:04;14.83;;;9.43;;
11473;SDS011;5793;52.238;13.438;2023-12-20T00:23:32;14.03;;;9.70;;
11473;SDS011;5793;52.238;13.438;2023-12-20T00:26:00;13.13;;;9.80;;
11473;SDS011;5793;52.238;13.438;2023-12-20T00:28:28;13.87;;;9.47;;
11473;SDS011;5793;52.238;13.438;2023-12-20T00:30:56;14.67;;;11.10;;
11473;SDS011;5793;52.238;13.438;2023-12-20T00:33:25;14.30;;;9.93;;
11473;SDS011;5793;52.238;13.438;2023-12-20T00:35:53;14.60;;;10.07;;
11473;SDS011;5793;52.238;13.438;2023-12-20T00:38:21;12.60;;;9.43;;
11473;SDS011;5793;52.238;13.438;2023-12-20T00:40:49;13.43;;;9.70;;
11473;SDS011;5793;52.238;13.438;2023-12-20T00:43:16;13.70;;;9.60;;
11473;SDS011;5793;52.238;13.438;2023-12-20T00:45:43;13.67;;;9.83;;
11473;SDS011;5793;52.238;13.438;2023-12-20T00:48:11;14.37;;;9.83;;
11473;SDS011;5793;52.238;13.438;2023-12-20T00:50:40;14.17;;;10.17;;
11473;SDS011;5793;52.238;13.438;2023-12-20T00:53:08;12.20;;;9.50;;
11473;SDS011;5793;52.238;13.438;2023-12-20T00:55:36;13.57;;;9.83;;
11473;SDS011;5793;52.238;13.438;2023-12-20T00:58:04;13.13;;;9.43;;
11473;SDS011;5793;52.238;13.438;2023-12-20T01:00:32;14.60;;;10.00;;
11473;SDS011;5793;52.238;13.438;2023-12-20T01:02:59;14.33;;;10.90;;
11473;SDS011;5793;52.238;13.438;2023-12-20T01:05:27;14.60;;;9.70;;
11473;SDS011;5793;52.238;13.438;2023-12-20T01:07:56;14.20;;;9.87;;
11473;SDS011;5793;52.238;13.438;2023-12-20T01:10:24;14.40;;;10.30;;
11473;SDS011;5793;52.238;13.438;2023-12-20T01:12:54;14.97;;;10.43;;
11473;SDS011;5793;52.238;13.438;2023-12-20T01:15:22;13.00;;;10.30;;
11473;SDS011;5793;52.238;13.438;2023-12-20T01:17:50;14.23;;;9.90;;
11473;SDS011;5793;52.238;13.438;2023-12-20T01:20:18;13.50;;;9.43;;
11473;SDS011;5793;52.238;13.438;2023-12-20T01:22:47;15.07;;;10.30;;
11473;SDS011;5793;52.238;13.438;2023-12-20T01:25:16;14.47;;;9.43;;
11473;SDS011;5793;52.238;13.438;2023-12-20T01:27:44;13.43;;;9.50;;
11473;SDS011;5793;52.238;13.438;2023-12-20T01:30:12;14.40;;;9.70;;
11473;SDS011;5793;52.238;13.438;2023-12-20T01:32:41;14.33;;;9.93;;
11473;SDS011;5793;52.238;13.438;2023-12-20T01:35:09;15.80;;;10.53;;
11473;SDS011;5793;52.238;13.438;2023-12-20T01:37:38;15.37;;;10.17;;
11473;SDS011;5793;52.238;13.438;2023-12-20T01:40:07;14.47;;;10.27;;
11473;SDS011;5793;52.238;13.438;2023-12-20T01:42:36;13.83;;;9.77;;
11473;SDS011;5793;52.238;13.438;2023-12-20T01:45:05;15.77;;;10.73;;
11473;SDS011;5793;52.238;13.438;2023-12-20T01:47:33;14.33;;;9.90;;
11473;SDS011;5793;52.238;13.438;2023-12-20T01:50:01;15.33;;;10.93;;
11473;SDS011;5793;52.238;13.438;2023-12-20T01:52:30;15.97;;;10.63;;
11473;SDS011;5793;52.238;13.438;2023-12-20T01:55:00;16.90;;;10.80;;
11473;SDS011;5793;52.238;13.438;2023-12-20T01:57:30;15.33;;;10.67;;
11473;SDS011;5793;52.238;13.438;2023-12-20T02:00:00;17.23;;;11.23;;
11473;SDS011;5793;52.238;13.438;2023-12-20T02:02:29;16.27;;;10.90;;
11473;SDS011;5793;52.238;13.438;2023-12-20T02:04:58;15.17;;;10.57;;
11473;SDS011;5793;52.238;13.438;2023-12-20T02:07:26;15.87;;;11.10;;
11473;SDS011;5793;52.238;13.438;2023-12-20T02:09:55;16.57;;;11.17;;
11473;SDS011;5793;52.238;13.438;2023-12-20T02:12:23;15.70;;;11.10;;
11473;SDS011;5793;52.238;13.438;2023-12-20T02:14:50;17.27;;;11.07;;
11473;SDS011;5793;52.238;13.438;2023-12-20T02:17:21;17.17;;;10.93;;
11473;SDS011;5793;52.238;13.438;2023-12-20T02:19:50;14.50;;;10.07;;
11473;SDS011;5793;52.238;13.438;2023-12-20T02:22:19;16.90;;;10.87;;
11473;SDS011;5793;52.238;13.438;2023-12-20T02:24:47;15.17;;;10.23;;
11473;SDS011;5793;52.238;13.438;2023-12-20T02:27:15;18.97;;;10.97;;
11473;SDS011;5793;52.238;13.438;2023-12-20T02:29:45;16.57;;;9.90;;
11473;SDS011;5793;52.238;13.438;2023-12-20T02:32:14;16.77;;;10.87;;
11473;SDS011;5793;52.238;13.438;2023-12-20T02:34:43;15.77;;;10.63;;
11473;SDS011;5793;52.238;13.438;2023-12-20T02:37:11;15.87;;;10.70;;
11473;SDS011;5793;52.238;13.438;2023-12-20T02:39:40;16.60;;;10.60;;
11473;SDS011;5793;52.238;13.438;2023-12-20T02:42:08;14.97;;;10.17;;
11473;SDS011;5793;52.238;13.438;2023-12-20T02:44:36;18.90;;;11.70;;
11473;SDS011;5793;52.238;13.438;2023-12-20T02:47:04;14.73;;;10.63;;
11473;SDS011;5793;52.238;13.438;2023-12-20T02:49:32;14.80;;;10.70;;
11473;SDS011;5793;52.238;13.438;2023-12-20T02:51:59;19.73;;;10.87;;
11473;SDS011;5793;52.238;13.438;2023-12-20T02:54:28;16.87;;;11.50;;
11473;SDS011;5793;52.238;13.438;2023-12-20T02:56:57;15.83;;;10.50;;
11473;SDS011;5793;52.238;13.438;2023-12-20T02:59:25;14.80;;;10.37;;
11473;SDS011;5793;52.238;13.438;2023-12-20T03:01:52;15.83;;;10.73;;
11473;SDS011;5793;52.238;13.438;2023-12-20T03:04:20;17.27;;;10.23;;
11473;SDS011;5793;52.238;13.438;2023-12-20T03:06:48;15.57;;;10.70;;
11473;SDS011;5793;52.238;13.438;2023-12-20T03:09:16;16.37;;;10.87;;
11473;SDS011;5793;52.238;13.438;2023-12-20T03:11:44;16.30;;;10.70;;
11473;SDS011;5793;52.238;13.438;2023-12-20T03:14:13;13.73;;;9.43;;
11473;SDS011;5793;52.238;13.438;2023-12-20T03:16:41;12.47;;;8.53;;
11473;SDS011;5793;52.238;13.438;2023-12-20T03:19:09;12.07;;;8.07;;
11473;SDS011;5793;52.238;13.438;2023-12-20T03:21:37;11.77;;;8.50;;
11473;SDS011;5793;52.238;13.438;2023-12-20T03:24:05;11.57;;;7.40;;
11473;SDS011;5793;52.238;13.438;2023-12-20T03:26:33;9.77;;;7.57;;
11473;SDS011;5793;52.238;13.438;2023-12-20T03:29:00;11.03;;;7.60;;
11473;SDS011;5793;52.238;13.438;2023-12-20T03:31:29;9.87;;;7.50;;
11473;SDS011;5793;52.238;13.438;2023-12-20T03:33:57;10.53;;;7.90;;
11473;SDS011;5793;52.238;13.438;2023-12-20T03:36:25;10.70;;;7.97;;
11473;SDS011;5793;52.238;13.438;2023-12-20T03:38:53;12.70;;;8.97;;
11473;SDS011;5793;52.238;13.438;2023-12-20T03:41:21;12.63;;;8.33;;
11473;SDS011;5793;52.238;13.438;2023-12-20T03:43:49;11.37;;;8.43;;
11473;SDS011;5793;52.238;13.438;2023-12-20T03:46:16;10.43;;;7.60;;
11473;SDS011;5793;52.238;13.438;2023-12-20T03:48:46;10.00;;;7.80;;
11473;SDS011;5793;52.238;13.438;2023-12-20T03:51:13;8.83;;;7.13;;
11473;SDS011;5793;52.238;13.438;2023-12-20T03:53:41;11.23;;;7.23;;
11473;SDS011;5793;52.238;13.438;2023-12-20T03:56:09;9.77;;;7.20;;
11473;SDS011;5793;52.238;13.438;2023-12-20T03:58:37;9.53;;;6.40;;
11473;SDS011;5793;52.238;13.438;2023-12-20T04:01:08;10.17;;;6.80;;
11473;SDS011;5793;52.238;13.438;2023-12-20T04:03:37;8.83;;;5.93;;
11473;SDS011;5793;52.238;13.438;2023-12-20T04:06:08;8.13;;;6.80;;
11473;SDS011;5793;52.238;13.438;2023-12-20T04:08:36;9.17;;;6.20;;
11473;SDS011;5793;52.238;13.438;2023-12-20T04:11:03;7.93;;;6.00;;
11473;SDS011;5793;52.238;13.438;2023-12-20T04:13:31;8.23;;;6.23;;
11473;SDS011;5793;52.238;13.438;2023-12-20T04:15:59;8.70;;;6.17;;
11473;SDS011;5793;52.238;13.438;2023-12-20T04:18:27;8.67;;;6.10;;
11473;SDS011;5793;52.238;13.438;2023-12-20T04:20:55;9.67;;;6.03;;
11473;SDS011;5793;52.238;13.438;2023-12-20T04:23:24;8.90;;;6.47;;
11473;SDS011;5793;52.238;13.438;2023-12-20T04:25:52;9.80;;;6.67;;
11473;SDS011;5793;52.238;13.438;2023-12-20T04:28:20;8.63;;;6.90;;
11473;SDS011;5793;52.238;13.438;2023-12-20T04:30:48;9.33;;;6.30;;
11473;SDS011;5793;52.238;13.438;2023-12-20T04:33:16;10.13;;;6.63;;
11473;SDS011;5793;52.238;13.438;2023-12-20T04:35:44;7.87;;;6.53;;
11473;SDS011;5793;52.238;13.438;2023-12-20T04:38:12;10.97;;;6.30;;
11473;SDS011;5793;52.238;13.438;2023-12-20T04:40:41;12.20;;;6.63;;
11473;SDS011;5793;52.238;13.438;2023-12-20T04:43:09;11.23;;;6.80;;
11473;SDS011;5793;52.238;13.438;2023-12-20T04:45:37;7.20;;;5.87;;
11473;SDS011;5793;52.238;13.438;2023-12-20T04:48:05;8.33;;;6.20;;
11473;SDS011;5793;52.238;13.438;2023-12-20T04:50:33;8.77;;;5.90;;
11473;SDS011;5793;52.238;13.438;2023-12-20T04:53:01;11.27;;;6.80;;
11473;SDS011;5793;52.238;13.438;2023-12-20T04:55:29;11.73;;;6.83;;
11473;SDS011;5793;52.238;13.438;2023-12-20T04:57:58;12.10;;;6.87;;
11473;SDS011;5793;52.238;13.438;2023-12-20T05:00:26;13.47;;;7.20;;
11473;SDS011;5793;52.238;13.438;2023-12-20T05:02:54;12.30;;;7.17;;
11473;SDS011;5793;52.238;13.438;2023-12-20T05:05:21;10.90;;;6.60;;
11473;SDS011;5793;52.238;13.438;2023-12-20T05:07:49;9.37;;;6.43;;
11473;SDS011;5793;52.238;13.438;2023-12-20T05:10:19;9.10;;;6.73;;
11473;SDS011;5793;52.238;13.438;2023-12-20T05:12:47;11.80;;;6.63;;
11473;SDS011;5793;52.238;13.438;2023-12-20T05:15:16;13.97;;;7.33;;
11473;SDS011;5793;52.238;13.438;2023-12-20T05:17:43;13.10;;;8.13;;
11473;SDS011;5793;52.238;13.438;2023-12-20T05:20:12;13.07;;;8.87;;
11473;SDS011;5793;52.238;13.438;2023-12-20T05:22:41;15.93;;;8.33;;
11473;SDS011;5793;52.238;13.438;2023-12-20T05:25:08;15.13;;;8.93;;
11473;SDS011;5793;52.238;13.438;2023-12-20T05:27:36;11.53;;;7.70;;
11473;SDS011;5793;52.238;13.438;2023-12-20T05:30:04;12.57;;;7.60;;
11473;SDS011;5793;52.238;13.438;2023-12-20T05:32:34;16.93;;;8.10;;
11473;SDS011;5793;52.238;13.438;2023-12-20T05:35:03;13.00;;;7.83;;
11473;SDS011;5793;52.238;13.438;2023-12-20T05:37:31;11.63;;;7.70;;
11473;SDS011;5793;52.238;13.438;2023-12-20T05:39:59;12.80;;;8.03;;
11473;SDS011;5793;52.238;13.438;2023-12-20T05:42:27;13.03;;;8.37;;
11473;SDS011;5793;52.238;13.438;2023-12-20T05:44:55;13.37;;;8.90;;
11473;SDS011;5793;52.238;13.438;2023-12-20T05:47:24;13.63;;;9.50;;
11473;SDS011;5793;52.238;13.438;2023-12-20T05:49:53;16.77;;;9.87;;
11473;SDS011;5793;52.238;13.438;2023-12-20T05:52:21;17.63;;;10.70;;
11473;SDS011;5793;52.238;13.438;2023-12-20T05:54:49;16.67;;;10.83;;
11473;SDS011;5793;52.238;13.438;2023-12-20T05:57:17;16.43;;;10.33;;
11473;SDS011;5793;52.238;13.438;2023-12-20T05:59:45;15.43;;;10.17;;
11473;SDS011;5793;52.238;13.438;2023-12-20T06:02:11;15.33;;;9.37;;
11473;SDS011;5793;52.238;13.438;2023-12-20T06:04:41;16.87;;;9.53;;
11473;SDS011;5793;52.238;13.438;2023-12-20T06:07:12;15.93;;;8.80;;
11473;SDS011;5793;52.238;13.438;2023-12-20T06:09:40;16.03;;;8.53;;
11473;SDS011;5793;52.238;13.438;2023-12-20T06:12:08;14.30;;;8.70;;
11473;SDS011;5793;52.238;13.438;2023-12-20T06:14:36;12.93;;;8.43;;
11473;SDS011;5793;52.238;13.438;2023-12-20T06:17:04;15.37;;;9.10;;
11473;SDS011;5793;52.238;13.438;2023-12-20T06:19:32;13.70;;;7.27;;
11473;SDS011;5793;52.238;13.438;2023-12-20T06:22:00;14.50;;;8.00;;
11473;SDS011;5793;52.238;13.438;2023-12-20T06:24:29;14.37;;;7.00;;
11473;SDS011;5793;52.238;13.438;2023-12-20T06:26:59;13.20;;;6.10;;
11473;SDS011;5793;52.238;13.438;2023-12-20T06:29:27;15.53;;;6.53;;
11473;SDS011;5793;52.238;13.438;2023-12-20T06:31:55;14.77;;;6.23;;
11473;SDS011;5793;52.238;13.438;2023-12-20T06:34:23;10.43;;;5.37;;
11473;SDS011;5793;52.238;13.438;2023-12-20T06:36:51;14.30;;;5.37;;
11473;SDS011;5793;52.238;13.438;2023-12-20T06:39:19;13.00;;;5.27;;
11473;SDS011;5793;52.238;13.438;2023-12-20T06:41:48;13.03;;;5.00;;
11473;SDS011;5793;52.238;13.438;2023-12-20T06:44:15;9.63;;;4.53;;
11473;SDS011;5793;52.238;13.438;2023-12-20T06:46:43;9.17;;;4.67;;
11473;SDS011;5793;52.238;13.438;2023-12-20T06:49:12;12.57;;;5.00;;
11473;SDS011;5793;52.238;13.438;2023-12-20T06:51:40;10.10;;;4.53;;
11473;SDS011;5793;52.238;13.438;2023-12-20T06:54:08;13.90;;;4.40;;
11473;SDS011;5793;52.238;13.438;2023-12-20T06:56:35;11.47;;;4.17;;
11473;SDS011;5793;52.238;13.438;2023-12-20T06:59:04;14.80;;;5.17;;
11473;SDS011;5793;52.238;13.438;2023-12-20T07:01:32;11.73;;;4.83;;
11473;SDS011;5793;52.238;13.438;2023-12-20T07:04:00;10.43;;;3.70;;
11473;SDS011;5793;52.238;13.438;2023-12-20T07:06:28;13.53;;;4.20;;
11473;SDS011;5793;52.238;13.438;2023-12-20T07:08:56;13.83;;;4.20;;
11473;SDS011;5793;52.238;13.438;2023-12-20T07:11:24;12.17;;;3.40;;
11473;SDS011;5793;52.238;13.438;2023-12-20T07:13:52;10.27;;;3.07;;
11473;SDS011;5793;52.238;13.438;2023-12-20T07:16:22;13.77;;;4.50;;
11473;SDS011;5793;52.238;13.438;2023-12-20T07:18:51;8.57;;;3.13;;
11473;SDS011;5793;52.238;13.438;2023-12-20T07:21:19;14.30;;;2.90;;
11473;SDS011;5793;52.238;13.438;2023-12-20T07:23:47;6.47;;;2.67;;
11473;SDS011;5793;52.238;13.438;2023-12-20T07:26:15;9.27;;;3.03;;
11473;SDS011;5793;52.238;13.438;2023-12-20T07:28:44;13.10;;;2.80;;
11473;SDS011;5793;52.238;13.438;2023-12-20T07:31:12;12.57;;;2.93;;
11473;SDS011;5793;52.238;13.438;2023-12-20T07:33:43;7.17;;;3.20;;
11473;SDS011;5793;52.238;13.438;2023-12-20T07:36:12;9.67;;;2.50;;
11473;SDS011;5793;52.238;13.438;2023-12-20T07:38:40;7.83;;;2.60;;
11473;SDS011;5793;52.238;13.438;2023-12-20T07:41:09;12.60;;;2.90;;
11473;SDS011;5793;52.238;13.438;2023-12-20T07:43:37;9.37;;;3.03;;
11473;SDS011;5793;52.238;13.438;2023-12-20T07:46:05;10.43;;;3.40;;
11473;SDS011;5793;52.238;13.438;2023-12-20T07:48:34;12.87;;;3.20;;
11473;SDS011;5793;52.238;13.438;2023-12-20T07:51:04;12.40;;;2.80;;
11473;SDS011;5793;52.238;13.438;2023-12-20T07:53:33;10.27;;;2.50;;
11473;SDS011;5793;52.238;13.438;2023-12-20T07:56:01;9.50;;;3.03;;
11473;SDS011;5793;52.238;13.438;2023-12-20T07:58:29;14.00;;;2.77;;
11473;SDS011;5793;52.238;13.438;2023-12-20T08:01:15;9.50;;;2.63;;
11473;SDS011;5793;52.238;13.438;2023-12-20T08:03:44;7.90;;;2.90;;
11473;SDS011;5793;52.238;13.438;2023-12-20T08:06:14;8.73;;;2.57;;
11473;SDS011;5793;52.238;13.438;2023-12-20T08:08:43;12.13;;;3.37;;
11473;SDS011;5793;52.238;13.438;2023-12-20T08:11:18;10.90;;;3.63;;
11473;SDS011;5793;52.238;13.438;2023-12-20T08:13:46;13.17;;;3.83;;
11473;SDS011;5793;52.238;13.438;2023-12-20T08:16:13;12.37;;;3.90;;
11473;SDS011;5793;52.238;13.438;2023-12-20T08:18:43;9.73;;;3.73;;
11473;SDS011;5793;52.238;13.438;2023-12-20T08:21:13;11.40;;;3.07;;
11473;SDS011;5793;52.238;13.438;2023-12-20T08:23:41;8.80;;;2.97;;
11473;SDS011;5793;52.238;13.438;2023-12-20T08:26:09;7.73;;;2.90;;
11473;SDS011;5793;52.238;13.438;2023-12-20T08:28:37;10.33;;;2.83;;
11473;SDS011;5793;52.238;13.438;2023-12-20T08:31:05;7.40;;;2.70;;
11473;SDS011;5793;52.238;13.438;2023-12-20T08:33:32;9.10;;;2.43;;
11473;SDS011;5793;52.238;13.438;2023-12-20T08:36:00;9.77;;;2.90;;
11473;SDS011;5793;52.238;13.438;2023-12-20T08:38:32;8.67;;;2.50;;
11473;SDS011;5793;52.238;13.438;2023-12-20T08:41:00;6.33;;;2.47;;
11473;SDS011;5793;52.238;13.438;2023-12-20T08:43:29;7.10;;;3.00;;
11473;SDS011;5793;52.238;13.438;2023-12-20T08:45:57;10.17;;;2.30;;
11473;SDS011;5793;52.238;13.438;2023-12-20T08:48:25;15.03;;;2.90;;
11473;SDS011;5793;52.238;13.438;2023-12-20T08:50:53;7.60;;;2.77;;
11473;SDS011;5793;52.238;13.438;2023-12-20T08:53:21;7.47;;;2.40;;
11473;SDS011;5793;52.238;13.438;2023-12-20T08:55:50;12.13;;;2.60;;
11473;SDS011;5793;52.238;13.438;2023-12-20T08:58:18;9.37;;;2.63;;
11473;SDS011;5793;52.238;13.438;2023-12-20T09:00:46;11.13;;;2.87;;
11473;SDS011;5793;52.238;13.438;2023-12-20T09:03:14;6.40;;;2.40;;
11473;SDS011;5793;52.238;13.438;2023-12-20T09:05:42;9.00;;;3.27;;
11473;SDS011;5793;52.238;13.438;2023-12-20T09:08:09;11.07;;;2.60;;
11473;SDS011;5793;52.238;13.438;2023-12-20T09:10:37;10.40;;;2.60;;
11473;SDS011;5793;52.238;13.438;2023-12-20T09:13:06;9.60;;;2.60;;
11473;SDS011;5793;52.238;13.438;2023-12-20T09:15:34;11.40;;;2.43;;
11473;SDS011;5793;52.238;13.438;2023-12-20T09:18:02;7.67;;;2.40;;
11473;SDS011;5793;52.238;13.438;2023-12-20T09:20:31;8.30;;;2.37;;
11473;SDS011;5793;52.238;13.438;2023-12-20T09:22:59;6.60;;;2.47;;
11473;SDS011;5793;52.238;13.438;2023-12-20T09:25:27;6.90;;;1.97;;
11473;SDS011;5793;52.238;13.438;2023-12-20T09:27:56;12.30;;;5.00;;
11473;SDS011;5793;52.238;13.438;2023-12-20T09:30:25;11.33;;;2.73;;
11473;SDS011;5793;52.238;13.438;2023-12-20T09:32:53;9.00;;;2.70;;
11473;SDS011;5793;52.238;13.438;2023-12-20T09:35:21;8.43;;;2.93;;
11473;SDS011;5793;52.238;13.438;2023-12-20T09:37:49;5.67;;;2.33;;
11473;SDS011;5793;52.238;13.438;2023-12-20T09:40:18;8.97;;;2.80;;
11473;SDS011;5793;52.238;13.438;2023-12-20T09:42:47;7.73;;;2.40;;
11473;SDS011;5793;52.238;13.438;2023-12-20T09:45:19;6.80;;;2.23;;
11473;SDS011;5793;52.238;13.438;2023-12-20T09:47:50;5.43;;;2.00;;
11473;SDS011;5793;52.238;13.438;2023-12-20T09:50:20;7.57;;;2.20;;
11473;SDS011;5793;52.238;13.438;2023-12-20T09:52:49;6.00;;;2.30;;
11473;SDS011;5793;52.238;13.438;2023-12-20T09:55:19;7.83;;;2.50;;
11473;SDS011;5793;52.238;13.438;2023-12-20T09:57:48;6.20;;;2.23;;
11473;SDS011;5793;52.238;13.438;2023-12-20T10:00:17;8.93;;;2.43;;
11473;SDS011;5793;52.238;13.438;2023-12-20T10:02:45;6.60;;;2.10;;
11473;SDS011;5793;52.238;13.438;2023-12-20T10:05:26;9.53;;;2.27;;
11473;SDS011;5793;52.238;13.438;2023-12-20T10:07:55;7.80;;;2.60;;
11473;SDS011;5793;52.238;13.438;2023-12-20T10:10:23;10.30;;;2.97;;
11473;SDS011;5793;52.238;13.438;2023-12-20T10:13:07;9.50;;;2.43;;
11473;SDS011;5793;52.238;13.438;2023-12-20T10:15:37;8.97;;;2.70;;
11473;SDS011;5793;52.238;13.438;2023-12-20T10:18:09;7.53;;;2.57;;
11473;SDS011;5793;52.238;13.438;2023-12-20T10:20:37;7.67;;;2.30;;
11473;SDS011;5793;52.238;13.438;2023-12-20T10:23:07;9.73;;;2.97;;
11473;SDS011;5793;52.238;13.438;2023-12-20T10:25:35;4.10;;;2.10;;
11473;SDS011;5793;52.238;13.438;2023-12-20T10:28:10;6.00;;;2.50;;
11473;SDS011;5793;52.238;13.438;2023-12-20T10:30:40;9.13;;;2.87;;
11473;SDS011;5793;52.238;13.438;2023-12-20T10:33:10;8.63;;;2.60;;
11473;SDS011;5793;52.238;13.438;2023-12-20T10:35:39;8.27;;;2.20;;
11473;SDS011;5793;52.238;13.438;2023-12-20T10:38:11;8.70;;;2.37;;
11473;SDS011;5793;52.238;13.438;2023-12-20T10:40:40;8.17;;;2.40;;
11473;SDS011;5793;52.238;13.438;2023-12-20T10:43:09;9.13;;;2.67;;
11473;SDS011;5793;52.238;13.438;2023-12-20T10:45:37;7.07;;;2.40;;
11473;SDS011;5793;52.238;13.438;2023-12-20T10:48:06;7.57;;;2.30;;
11473;SDS011;5793;52.238;13.438;2023-12-20T10:50:36;7.77;;;2.80;;
11473;SDS011;5793;52.238;13.438;2023-12-20T10:53:06;9.37;;;2.67;;
11473;SDS011;5793;52.238;13.438;2023-12-20T10:55:34;11.83;;;2.50;;
11473;SDS011;5793;52.238;13.438;2023-12-20T10:58:02;6.27;;;2.23;;
11473;SDS011;5793;52.238;13.438;2023-12-20T11:00:35;11.33;;;3.23;;
11473;SDS011;5793;52.238;13.438;2023-12-20T11:03:08;9.27;;;2.60;;
11473;SDS011;5793;52.238;13.438;2023-12-20T11:05:40;7.10;;;2.27;;
11473;SDS011;5793;52.238;13.438;2023-12-20T11:08:18;7.47;;;2.23;;
11473;SDS011;5793;52.238;13.438;2023-12-20T11:10:51;6.63;;;2.50;;
11473;SDS011;5793;52.238;13.438;2023-12-20T11:13:28;9.30;;;2.97;;
11473;SDS011;5793;52.238;13.438;2023-12-20T11:16:00;6.27;;;2.47;;
11473;SDS011;5793;52.238;13.438;2023-12-20T11:18:28;10.13;;;3.13;;
11473;SDS011;5793;52.238;13.438;2023-12-20T11:21:01;6.47;;;2.37;;
11473;SDS011;5793;52.238;13.438;2023-12-20T11:23:31;10.83;;;3.00;;
11473;SDS011;5793;52.238;13.438;2023-12-20T11:26:01;4.60;;;2.47;;
11473;SDS011;5793;52.238;13.438;2023-12-20T11:28:30;10.03;;;2.83;;
11473;SDS011;5793;52.238;13.438;2023-12-20T11:30:58;9.87;;;2.80;;
11473;SDS011;5793;52.238;13.438;2023-12-20T11:33:29;8.83;;;2.33;;
11473;SDS011;5793;52.238;13.438;2023-12-20T11:35:58;8.50;;;2.63;;
11473;SDS011;5793;52.238;13.438;2023-12-20T11:38:28;7.87;;;2.60;;
11473;SDS011;5793;52.238;13.438;2023-12-20T11:41:05;5.77;;;2.03;;
11473;SDS011;5793;52.238;13.438;2023-12-20T11:43:36;6.87;;;2.20;;
11473;SDS011;5793;52.238;13.438;2023-12-20T11:46:04;8.67;;;2.53;;
11473;SDS011;5793;52.238;13.438;2023-12-20T11:48:35;8.10;;;2.10;;
11473;SDS011;5793;52.238;13.438;2023-12-20T11:51:08;12.93;;;2.50;;
11473;SDS011;5793;52.238;13.438;2023-12-20T11:53:38;7.27;;;2.07;;
11473;SDS011;5793;52.238;13.438;2023-12-20T11:56:06;4.93;;;2.17;;
11473;SDS011;5793;52.238;13.438;2023-12-20T11:58:34;6.80;;;2.70;;
11473;SDS011;5793;52.238;13.438;2023-12-20T12:01:03;8.50;;;2.47;;
11473;SDS011;5793;52.238;13.438;2023-12-20T12:03:34;4.87;;;2.43;;
11473;SDS011;5793;52.238;13.438;2023-12-20T12:06:02;7.00;;;2.60;;
11473;SDS011;5793;52.238;13.438;2023-12-20T12:08:31;8.70;;;3.00;;
11473;SDS011;5793;52.238;13.438;2023-12-20T12:11:01;9.03;;;2.33;;
11473;SDS011;5793;52.238;13.438;2023-12-20T12:13:29;9.83;;;2.70;;
11473;SDS011;5793;52.238;13.438;2023-12-20T12:15:57;8.67;;;2.60;;
11473;SDS011;5793;52.238;13.438;2023-12-20T12:18:26;7.27;;;2.63;;
11473;SDS011;5793;52.238;13.438;2023-12-20T12:20:59;6.77;;;2.37;;
11473;SDS011;5793;52.238;13.438;2023-12-20T12:23:27;5.17;;;2.40;;
11473;SDS011;5793;52.238;13.438;2023-12-20T12:25:55;7.23;;;2.60;;
11473;SDS011;5793;52.238;13.438;2023-12-20T12:28:26;7.60;;;3.13;;
11473;SDS011;5793;52.238;13.438;2023-12-20T12:30:56;6.90;;;2.60;;
11473;SDS011;5793;52.238;13.438;2023-12-20T12:33:24;7.00;;;2.00;;
11473;SDS011;5793;52.238;13.438;2023-12-20T12:35:53;6.23;;;2.90;;
11473;SDS011;5793;52.238;13.438;2023-12-20T12:38:22;7.27;;;2.20;;
11473;SDS011;5793;52.238;13.438;2023-12-20T12:40:51;6.13;;;2.73;;
11473;SDS011;5793;52.238;13.438;2023-12-20T12:43:20;4.40;;;2.33;;
11473;SDS011;5793;52.238;13.438;2023-12-20T12:45:51;6.70;;;3.00;;
11473;SDS011;5793;52.238;13.438;2023-12-20T12:48:18;6.47;;;2.67;;
11473;SDS011;5793;52.238;13.438;2023-12-20T12:50:47;6.80;;;2.30;;
11473;SDS011;5793;52.238;13.438;2023-12-20T12:53:14;4.77;;;2.40;;
11473;SDS011;5793;52.238;13.438;2023-12-20T12:55:42;7.70;;;2.63;;
11473;SDS011;5793;52.238;13.438;2023-12-20T12:58:10;4.07;;;2.50;;
11473;SDS011;5793;52.238;13.438;2023-12-20T13:00:38;6.40;;;2.60;;
11473;SDS011;5793;52.238;13.438;2023-12-20T13:03:08;7.27;;;2.43;;
11473;SDS011;5793;52.238;13.438;2023-12-20T13:05:35;8.70;;;2.87;;
11473;SDS011;5793;52.238;13.438;2023-12-20T13:08:07;7.23;;;2.77;;
11473;SDS011;5793;52.238;13.438;2023-12-20T13:10:35;5.53;;;2.70;;
11473;SDS011;5793;52.238;13.438;2023-12-20T13:13:03;6.43;;;2.67;;
11473;SDS011;5793;52.238;13.438;2023-12-20T13:15:31;8.17;;;3.73;;
11473;SDS011;5793;52.238;13.438;2023-12-20T13:17:59;10.83;;;3.53;;
11473;SDS011;5793;52.238;13.438;2023-12-20T13:20:29;8.43;;;3.50;;
11473;SDS011;5793;52.238;13.438;2023-12-20T13:22:57;8.23;;;3.33;;
11473;SDS011;5793;52.238;13.438;2023-12-20T13:25:24;7.30;;;3.00;;
11473;SDS011;5793;52.238;13.438;2023-12-20T13:27:53;6.03;;;2.90;;
11473;SDS011;5793;52.238;13.438;2023-12-20T13:30:21;7.60;;;3.20;;
11473;SDS011;5793;52.238;13.438;2023-12-20T13:32:49;6.37;;;2.83;;
11473;SDS011;5793;52.238;13.438;2023-12-20T13:35:17;8.17;;;3.70;;
11473;SDS011;5793;52.238;13.438;2023-12-20T13:37:46;9.03;;;3.63;;
11473;SDS011;5793;52.238;13.438;2023-12-20T13:40:15;11.07;;;3.90;;
11473;SDS011;5793;52.238;13.438;2023-12-20T13:42:43;10.57;;;3.13;;
11473;SDS011;5793;52.238;13.438;2023-12-20T13:45:11;9.27;;;3.37;;
11473;SDS011;5793;52.238;13.438;2023-12-20T13:47:39;6.27;;;3.23;;
11473;SDS011;5793;52.238;13.438;2023-12-20T13:50:07;8.07;;;3.30;;
11473;SDS011;5793;52.238;13.438;2023-12-20T13:52:35;9.07;;;3.30;;
11473;SDS011;5793;52.238;13.438;2023-12-20T13:55:06;7.87;;;3.13;;
11473;SDS011;5793;52.238;13.438;2023-12-20T13:57:35;9.27;;;4.07;;
11473;SDS011;5793;52.238;13.438;2023-12-20T14:00:20;11.97;;;4.40;;
11473;SDS011;5793;52.238;13.438;2023-12-20T14:02:48;5.47;;;1.63;;
11473;SDS011;5793;52.238;13.438;2023-12-20T14:05:16;2.97;;;1.30;;
11473;SDS011;5793;52.238;13.438;2023-12-20T14:07:46;4.47;;;2.00;;
11473;SDS011;5793;52.238;13.438;2023-12-20T14:10:16;2.50;;;1.70;;
11473;SDS011;5793;52.238;13.438;2023-12-20T14:12:44;2.83;;;1.30;;
11473;SDS011;5793;52.238;13.438;2023-12-20T14:15:12;4.33;;;2.13;;
11473;SDS011;5793;52.238;13.438;2023-12-20T14:17:40;3.17;;;1.40;;
11473;SDS011;5793;52.238;13.438;2023-12-20T14:20:09;2.20;;;1.60;;
11473;SDS011;5793;52.238;13.438;2023-12-20T14:22:39;5.37;;;2.33;;
11473;SDS011;5793;52.238;13.438;2023-12-20T14:25:11;2.73;;;1.40;;
11473;SDS011;5793;52.238;13.438;2023-12-20T14:27:41;4.73;;;2.27;;
11473;SDS011;5793;52.238;13.438;2023-12-20T14:30:11;4.13;;;1.83;;
11473;SDS011;5793;52.238;13.438;2023-12-20T14:32:41;4.73;;;1.90;;
11473;SDS011;5793;52.238;13.438;2023-12-20T14:35:09;3.20;;;2.07;;
11473;SDS011;5793;52.238;13.438;2023-12-20T14:37:37;3.33;;;2.13;;
11473;SDS011;5793;52.238;13.438;2023-12-20T14:40:07;3.33;;;2.40;;
11473;SDS011;5793;52.238;13.438;2023-12-20T14:42:42;6.13;;;3.10;;
11473;SDS011;5793;52.238;13.438;2023-12-20T14:45:10;6.20;;;3.40;;
11473;SDS011;5793;52.238;13.438;2023-12-20T14:47:39;12.80;;;6.13;;